sensor_id;sensor_type;location;lat;lon;timestamp;temperature;humidity
7048;DHT22;3565;53.254;10.352;2023-03-04T00:00:34;5.20;99.90
7048;DHT22;3565;53.254;10.352;2023-03-04T00:03:04;5.20;99.90
7048;DHT22;3565;53.254;10.352;2023-03-04T00:05:33;5.20;99.90
7048;DHT22;3565;53.254;10.352;2023-03-04T00:08:03;5.20;99.90
7048;DHT22;3565;53.254;10.352;2023-03-04T00:10:32;5.30;99.90
7048;DHT22;3565;53.254;10.352;2023-03-04T00:13:01;5.20;99.90
7048;DHT22;3565;53.254;10.352;2023-03-04T00:15:30;5.20;1.00
7048;DHT22;3565;53.254;10.352;2023-03-04T00:17:59;5.20;1.00
7048;DHT22;3565;53.254;10.352;2023-03-04T00:20:29;5.20;1.00
7048;DHT22;3565;53.254;10.352;2023-03-04T00:22:58;5.20;1.00
7048;DHT22;3565;53.254;10.352;2023-03-04T00:25:27;5.20;1.00
7048;DHT22;3565;53.254;10.352;2023-03-04T00:27:56;5.20;1.00
7048;DHT22;3565;53.254;10.352;2023-03-04T00:30:25;5.20;1.00
7048;DHT22;3565;53.254;10.352;2023-03-04T00:32:55;5.30;99.90
7048;DHT22;3565;53.254;10.352;2023-03-04T00:35:24;5.30;99.90
7048;DHT22;3565;53.254;10.352;2023-03-04T00:37:53;5.30;99.90
7048;DHT22;3565;53.254;10.352;2023-03-04T00:40:22;5.40;99.90
7048;DHT22;3565;53.254;10.352;2023-03-04T00:42:51;5.40;99.90
7048;DHT22;3565;53.254;10.352;2023-03-04T00:45:21;5.30;1.00
7048;DHT22;3565;53.254;10.352;2023-03-04T00:47:50;5.30;1.00
7048;DHT22;3565;53.254;10.352;2023-03-04T00:50:20;5.20;1.00
7048;DHT22;3565;53.254;10.352;2023-03-04T00:52:49;5.20;1.00
7048;DHT22;3565;53.254;10.352;2023-03-04T00:55:18;5.30;1.00
7048;DHT22;3565;53.254;10.352;2023-03-04T00:57:47;5.20;1.00
7048;DHT22;3565;53.254;10.352;2023-03-04T01:00:18;5.20;1.00
7048;DHT22;3565;53.254;10.352;2023-03-04T01:02:47;5.20;1.00
7048;DHT22;3565;53.254;10.352;2023-03-04T01:05:17;5.20;1.00
7048;DHT22;3565;53.254;10.352;2023-03-04T01:07:46;5.20;1.00
7048;DHT22;3565;53.254;10.352;2023-03-04T01:10:16;5.30;1.00
7048;DHT22;3565;53.254;10.352;2023-03-04T01:12:45;5.30;99.90
7048;DHT22;3565;53.254;10.352;2023-03-04T01:15:15;5.30;99.90
7048;DHT22;3565;53.254;10.352;2023-03-04T01:17:44;5.30;99.90
7048;DHT22;3565;53.254;10.352;2023-03-04T01:20:14;5.30;99.90
7048;DHT22;3565;53.254;10.352;2023-03-04T01:22:43;5.40;99.90
7048;DHT22;3565;53.254;10.352;2023-03-04T01:25:12;5.40;99.90
7048;DHT22;3565;53.254;10.352;2023-03-04T01:27:41;5.40;99.90
7048;DHT22;3565;53.254;10.352;2023-03-04T01:30:12;5.40;1.00
7048;DHT22;3565;53.254;10.352;2023-03-04T01:32:41;5.40;99.90
7048;DHT22;3565;53.254;10.352;2023-03-04T01:35:11;5.30;1.00
7048;DHT22;3565;53.254;10.352;2023-03-04T01:37:40;5.40;99.90
7048;DHT22;3565;53.254;10.352;2023-03-04T01:40:11;5.40;1.00
7048;DHT22;3565;53.254;10.352;2023-03-04T01:42:41;5.30;1.00
7048;DHT22;3565;53.254;10.352;2023-03-04T01:45:14;5.30;43.40
7048;DHT22;3565;53.254;10.352;2023-03-04T01:47:46;5.20;53.10
7048;DHT22;3565;53.254;10.352;2023-03-04T01:50:23;5.20;99.90
7048;DHT22;3565;53.254;10.352;2023-03-04T01:52:52;5.20;1.00
7048;DHT22;3565;53.254;10.352;2023-03-04T01:55:22;5.30;1.00
7048;DHT22;3565;53.254;10.352;2023-03-04T01:57:52;5.30;1.00
7048;DHT22;3565;53.254;10.352;2023-03-04T02:00:27;5.30;1.00
7048;DHT22;3565;53.254;10.352;2023-03-04T02:02:59;5.40;1.00
7048;DHT22;3565;53.254;10.352;2023-03-04T02:05:30;5.40;99.90
7048;DHT22;3565;53.254;10.352;2023-03-04T02:08:01;5.30;1.00
7048;DHT22;3565;53.254;10.352;2023-03-04T02:10:32;5.30;1.00
7048;DHT22;3565;53.254;10.352;2023-03-04T02:13:01;5.40;1.00
7048;DHT22;3565;53.254;10.352;2023-03-04T02:15:31;5.40;99.90
7048;DHT22;3565;53.254;10.352;2023-03-04T02:18:01;5.40;1.00
7048;DHT22;3565;53.254;10.352;2023-03-04T02:20:38;5.40;1.00
7048;DHT22;3565;53.254;10.352;2023-03-04T02:23:14;5.40;99.90
7048;DHT22;3565;53.254;10.352;2023-03-04T02:25:46;5.40;99.90
7048;DHT22;3565;53.254;10.352;2023-03-04T02:28:16;5.40;99.90
7048;DHT22;3565;53.254;10.352;2023-03-04T02:30:45;5.40;99.90
7048;DHT22;3565;53.254;10.352;2023-03-04T02:33:16;5.50;99.90
7048;DHT22;3565;53.254;10.352;2023-03-04T02:35:46;5.50;99.90
7048;DHT22;3565;53.254;10.352;2023-03-04T02:38:15;5.50;99.90
7048;DHT22;3565;53.254;10.352;2023-03-04T02:40:47;5.50;99.90
7048;DHT22;3565;53.254;10.352;2023-03-04T02:43:17;5.50;99.90
7048;DHT22;3565;53.254;10.352;2023-03-04T02:45:48;5.50;99.90
7048;DHT22;3565;53.254;10.352;2023-03-04T02:48:19;5.50;99.90
7048;DHT22;3565;53.254;10.352;2023-03-04T02:53:30;5.50;99.90
7048;DHT22;3565;53.254;10.352;2023-03-04T02:55:59;5.50;99.90
7048;DHT22;3565;53.254;10.352;2023-03-04T02:58:29;5.60;99.90
7048;DHT22;3565;53.254;10.352;2023-03-04T03:00:58;5.60;99.90
7048;DHT22;3565;53.254;10.352;2023-03-04T03:06:07;5.50;99.90
7048;DHT22;3565;53.254;10.352;2023-03-04T03:08:36;5.60;54.10
7048;DHT22;3565;53.254;10.352;2023-03-04T03:11:06;5.50;25.10
7048;DHT22;3565;53.254;10.352;2023-03-04T03:13:36;5.50;99.90
7048;DHT22;3565;53.254;10.352;2023-03-04T03:16:06;5.50;99.90
7048;DHT22;3565;53.254;10.352;2023-03-04T03:18:35;5.50;99.90
7048;DHT22;3565;53.254;10.352;2023-03-04T03:21:05;5.50;99.90
7048;DHT22;3565;53.254;10.352;2023-03-04T03:23:34;5.50;99.90
7048;DHT22;3565;53.254;10.352;2023-03-04T03:26:05;5.50;99.90
7048;DHT22;3565;53.254;10.352;2023-03-04T03:28:34;5.50;99.90
7048;DHT22;3565;53.254;10.352;2023-03-04T03:31:04;5.50;99.90
7048;DHT22;3565;53.254;10.352;2023-03-04T03:33:33;5.50;99.90
7048;DHT22;3565;53.254;10.352;2023-03-04T03:36:02;5.40;99.90
7048;DHT22;3565;53.254;10.352;2023-03-04T03:38:32;5.50;1.00
7048;DHT22;3565;53.254;10.352;2023-03-04T03:41:01;5.40;1.00
7048;DHT22;3565;53.254;10.352;2023-03-04T03:43:30;5.50;1.00
7048;DHT22;3565;53.254;10.352;2023-03-04T03:45:59;5.60;1.00
7048;DHT22;3565;53.254;10.352;2023-03-04T03:48:28;5.50;1.00
7048;DHT22;3565;53.254;10.352;2023-03-04T03:50:58;5.50;1.00
7048;DHT22;3565;53.254;10.352;2023-03-04T03:53:27;5.50;1.00
7048;DHT22;3565;53.254;10.352;2023-03-04T03:55:56;5.50;1.00
7048;DHT22;3565;53.254;10.352;2023-03-04T03:58:25;5.50;1.00
7048;DHT22;3565;53.254;10.352;2023-03-04T04:00:55;5.40;1.00
7048;DHT22;3565;53.254;10.352;2023-03-04T04:03:25;5.40;1.00
7048;DHT22;3565;53.254;10.352;2023-03-04T04:05:54;5.40;99.90
7048;DHT22;3565;53.254;10.352;2023-03-04T04:08:25;5.40;1.00
7048;DHT22;3565;53.254;10.352;2023-03-04T04:10:54;5.40;99.90
7048;DHT22;3565;53.254;10.352;2023-03-04T04:13:23;5.30;1.00
7048;DHT22;3565;53.254;10.352;2023-03-04T04:15:52;5.20;99.90
7048;DHT22;3565;53.254;10.352;2023-03-04T04:21:00;5.10;99.90
7048;DHT22;3565;53.254;10.352;2023-03-04T04:23:30;5.10;99.90
7048;DHT22;3565;53.254;10.352;2023-03-04T04:25:59;5.10;99.90
7048;DHT22;3565;53.254;10.352;2023-03-04T04:28:28;5.10;1.00
7048;DHT22;3565;53.254;10.352;2023-03-04T04:30:57;5.10;1.00
7048;DHT22;3565;53.254;10.352;2023-03-04T04:33:27;5.00;99.90
7048;DHT22;3565;53.254;10.352;2023-03-04T04:35:56;5.00;99.90
7048;DHT22;3565;53.254;10.352;2023-03-04T04:38:25;5.10;99.90
7048;DHT22;3565;53.254;10.352;2023-03-04T04:40:56;5.00;99.90
7048;DHT22;3565;53.254;10.352;2023-03-04T04:43:26;5.10;99.90
7048;DHT22;3565;53.254;10.352;2023-03-04T04:45:55;5.10;12.20
7048;DHT22;3565;53.254;10.352;2023-03-04T04:48:25;5.10;1.00
7048;DHT22;3565;53.254;10.352;2023-03-04T04:50:55;5.10;1.00
7048;DHT22;3565;53.254;10.352;2023-03-04T04:53:24;5.10;99.90
7048;DHT22;3565;53.254;10.352;2023-03-04T04:55:54;5.20;1.00
7048;DHT22;3565;53.254;10.352;2023-03-04T04:58:23;5.20;99.90
7048;DHT22;3565;53.254;10.352;2023-03-04T05:00:54;5.20;1.00
7048;DHT22;3565;53.254;10.352;2023-03-04T05:03:23;5.20;42.00
7048;DHT22;3565;53.254;10.352;2023-03-04T05:05:52;5.30;99.90
7048;DHT22;3565;53.254;10.352;2023-03-04T05:11:00;5.20;99.90
7048;DHT22;3565;53.254;10.352;2023-03-04T05:13:30;5.30;1.00
7048;DHT22;3565;53.254;10.352;2023-03-04T05:15:59;5.40;1.00
7048;DHT22;3565;53.254;10.352;2023-03-04T05:18:28;5.40;66.20
7048;DHT22;3565;53.254;10.352;2023-03-04T05:23:40;5.30;99.90
7048;DHT22;3565;53.254;10.352;2023-03-04T05:26:11;5.30;99.90
7048;DHT22;3565;53.254;10.352;2023-03-04T05:28:41;5.20;99.90
7048;DHT22;3565;53.254;10.352;2023-03-04T05:31:11;5.20;99.90
7048;DHT22;3565;53.254;10.352;2023-03-04T05:33:40;5.20;1.00
7048;DHT22;3565;53.254;10.352;2023-03-04T05:36:10;5.10;1.00
7048;DHT22;3565;53.254;10.352;2023-03-04T05:38:39;5.10;1.00
7048;DHT22;3565;53.254;10.352;2023-03-04T05:41:08;5.10;1.00
7048;DHT22;3565;53.254;10.352;2023-03-04T05:43:38;5.00;15.90
7048;DHT22;3565;53.254;10.352;2023-03-04T05:46:09;5.10;1.00
7048;DHT22;3565;53.254;10.352;2023-03-04T05:48:40;5.00;1.00
7048;DHT22;3565;53.254;10.352;2023-03-04T05:51:09;5.00;1.00
7048;DHT22;3565;53.254;10.352;2023-03-04T05:53:39;5.00;46.80
7048;DHT22;3565;53.254;10.352;2023-03-04T05:56:14;5.00;99.90
7048;DHT22;3565;53.254;10.352;2023-03-04T05:58:43;4.90;99.90
7048;DHT22;3565;53.254;10.352;2023-03-04T06:01:14;4.90;99.90
7048;DHT22;3565;53.254;10.352;2023-03-04T06:03:43;4.90;1.00
7048;DHT22;3565;53.254;10.352;2023-03-04T06:06:16;4.90;1.00
7048;DHT22;3565;53.254;10.352;2023-03-04T06:08:47;4.80;99.90
7048;DHT22;3565;53.254;10.352;2023-03-04T06:11:16;4.90;99.90
7048;DHT22;3565;53.254;10.352;2023-03-04T06:13:45;4.90;99.90
7048;DHT22;3565;53.254;10.352;2023-03-04T06:16:14;4.90;99.90
7048;DHT22;3565;53.254;10.352;2023-03-04T06:18:44;4.80;99.90
7048;DHT22;3565;53.254;10.352;2023-03-04T06:21:13;4.90;99.90
7048;DHT22;3565;53.254;10.352;2023-03-04T06:23:42;4.80;99.90
7048;DHT22;3565;53.254;10.352;2023-03-04T06:26:11;4.80;99.90
7048;DHT22;3565;53.254;10.352;2023-03-04T06:28:42;4.80;99.90
7048;DHT22;3565;53.254;10.352;2023-03-04T06:31:11;4.80;99.90
7048;DHT22;3565;53.254;10.352;2023-03-04T06:33:40;4.80;99.90
7048;DHT22;3565;53.254;10.352;2023-03-04T06:36:09;4.90;99.90
7048;DHT22;3565;53.254;10.352;2023-03-04T06:38:39;4.90;1.00
7048;DHT22;3565;53.254;10.352;2023-03-04T06:41:10;4.80;1.00
7048;DHT22;3565;53.254;10.352;2023-03-04T06:43:39;4.90;99.90
7048;DHT22;3565;53.254;10.352;2023-03-04T06:46:09;5.00;1.00
7048;DHT22;3565;53.254;10.352;2023-03-04T06:48:38;5.00;1.00
7048;DHT22;3565;53.254;10.352;2023-03-04T06:51:08;5.10;1.00
7048;DHT22;3565;53.254;10.352;2023-03-04T06:53:39;5.10;99.90
7048;DHT22;3565;53.254;10.352;2023-03-04T06:56:11;5.20;99.90
7048;DHT22;3565;53.254;10.352;2023-03-04T06:58:42;5.20;99.90
7048;DHT22;3565;53.254;10.352;2023-03-04T07:01:13;5.20;99.90
7048;DHT22;3565;53.254;10.352;2023-03-04T07:03:44;5.30;99.90
7048;DHT22;3565;53.254;10.352;2023-03-04T07:06:15;5.20;99.90
7048;DHT22;3565;53.254;10.352;2023-03-04T07:08:45;5.30;99.90
7048;DHT22;3565;53.254;10.352;2023-03-04T07:11:15;5.30;99.90
7048;DHT22;3565;53.254;10.352;2023-03-04T07:13:45;5.30;1.00
7048;DHT22;3565;53.254;10.352;2023-03-04T07:16:16;5.30;1.00
7048;DHT22;3565;53.254;10.352;2023-03-04T07:18:46;5.40;1.00
7048;DHT22;3565;53.254;10.352;2023-03-04T07:21:16;5.30;1.00
7048;DHT22;3565;53.254;10.352;2023-03-04T07:23:46;5.40;1.00
7048;DHT22;3565;53.254;10.352;2023-03-04T07:26:16;5.40;1.00
7048;DHT22;3565;53.254;10.352;2023-03-04T07:31:25;5.40;1.00
7048;DHT22;3565;53.254;10.352;2023-03-04T07:33:58;5.40;1.00
7048;DHT22;3565;53.254;10.352;2023-03-04T07:36:27;5.40;99.90
7048;DHT22;3565;53.254;10.352;2023-03-04T07:38:57;5.30;99.90
7048;DHT22;3565;53.254;10.352;2023-03-04T07:41:27;5.30;99.90
7048;DHT22;3565;53.254;10.352;2023-03-04T07:43:57;5.20;99.90
7048;DHT22;3565;53.254;10.352;2023-03-04T07:46:27;5.30;99.90
7048;DHT22;3565;53.254;10.352;2023-03-04T07:48:56;5.30;76.20
7048;DHT22;3565;53.254;10.352;2023-03-04T07:51:27;5.30;99.50
7048;DHT22;3565;53.254;10.352;2023-03-04T07:53:59;5.30;1.00
7048;DHT22;3565;53.254;10.352;2023-03-04T07:56:30;5.30;1.00
7048;DHT22;3565;53.254;10.352;2023-03-04T07:59:00;5.20;1.00
7048;DHT22;3565;53.254;10.352;2023-03-04T08:04:09;5.30;1.80
7048;DHT22;3565;53.254;10.352;2023-03-04T08:06:40;5.30;1.00
7048;DHT22;3565;53.254;10.352;2023-03-04T08:09:11;5.20;1.00
7048;DHT22;3565;53.254;10.352;2023-03-04T08:11:41;5.20;1.00
7048;DHT22;3565;53.254;10.352;2023-03-04T08:14:11;5.10;1.00
7048;DHT22;3565;53.254;10.352;2023-03-04T08:16:41;5.20;1.00
7048;DHT22;3565;53.254;10.352;2023-03-04T08:19:11;5.20;1.00
7048;DHT22;3565;53.254;10.352;2023-03-04T08:21:40;5.20;1.00
7048;DHT22;3565;53.254;10.352;2023-03-04T08:24:13;5.20;1.00
7048;DHT22;3565;53.254;10.352;2023-03-04T08:26:44;5.20;1.00
7048;DHT22;3565;53.254;10.352;2023-03-04T08:29:15;5.10;1.00
7048;DHT22;3565;53.254;10.352;2023-03-04T08:31:45;5.10;1.00
7048;DHT22;3565;53.254;10.352;2023-03-04T08:34:15;5.10;1.00
7048;DHT22;3565;53.254;10.352;2023-03-04T08:36:44;5.10;1.00
7048;DHT22;3565;53.254;10.352;2023-03-04T08:39:15;5.10;1.00
7048;DHT22;3565;53.254;10.352;2023-03-04T08:41:46;5.20;1.00
7048;DHT22;3565;53.254;10.352;2023-03-04T08:44:15;5.20;1.00
7048;DHT22;3565;53.254;10.352;2023-03-04T08:46:45;5.20;1.00
7048;DHT22;3565;53.254;10.352;2023-03-04T08:49:14;5.20;1.00
7048;DHT22;3565;53.254;10.352;2023-03-04T08:54:24;5.20;1.00
7048;DHT22;3565;53.254;10.352;2023-03-04T08:56:53;5.20;1.00
7048;DHT22;3565;53.254;10.352;2023-03-04T08:59:22;5.30;1.00
7048;DHT22;3565;53.254;10.352;2023-03-04T09:01:52;5.20;1.00
7048;DHT22;3565;53.254;10.352;2023-03-04T09:04:22;5.20;1.00
7048;DHT22;3565;53.254;10.352;2023-03-04T09:06:51;5.10;1.00
7048;DHT22;3565;53.254;10.352;2023-03-04T09:09:20;5.10;1.00
7048;DHT22;3565;53.254;10.352;2023-03-04T09:11:49;5.10;1.00
7048;DHT22;3565;53.254;10.352;2023-03-04T09:14:18;5.10;1.00
7048;DHT22;3565;53.254;10.352;2023-03-04T09:16:47;5.10;1.00
7048;DHT22;3565;53.254;10.352;2023-03-04T09:19:17;5.10;1.00
7048;DHT22;3565;53.254;10.352;2023-03-04T09:21:46;5.00;1.00
7048;DHT22;3565;53.254;10.352;2023-03-04T09:24:16;5.00;1.00
7048;DHT22;3565;53.254;10.352;2023-03-04T09:26:48;5.00;1.00
7048;DHT22;3565;53.254;10.352;2023-03-04T09:29:16;5.10;1.00
7048;DHT22;3565;53.254;10.352;2023-03-04T09:31:45;5.10;1.00
7048;DHT22;3565;53.254;10.352;2023-03-04T09:34:14;5.10;1.00
7048;DHT22;3565;53.254;10.352;2023-03-04T09:36:44;5.10;1.00
7048;DHT22;3565;53.254;10.352;2023-03-04T09:39:13;5.10;1.00
7048;DHT22;3565;53.254;10.352;2023-03-04T09:41:44;5.20;1.00
7048;DHT22;3565;53.254;10.352;2023-03-04T09:44:20;5.10;1.00
7048;DHT22;3565;53.254;10.352;2023-03-04T09:49:30;5.10;1.00
7048;DHT22;3565;53.254;10.352;2023-03-04T09:52:04;5.10;1.00
7048;DHT22;3565;53.254;10.352;2023-03-04T09:54:49;5.20;1.00
7048;DHT22;3565;53.254;10.352;2023-03-04T09:57:27;5.10;1.00
7048;DHT22;3565;53.254;10.352;2023-03-04T10:00:06;5.20;1.00
7048;DHT22;3565;53.254;10.352;2023-03-04T10:02:44;5.20;1.00
7048;DHT22;3565;53.254;10.352;2023-03-04T10:05:17;5.20;1.00
7048;DHT22;3565;53.254;10.352;2023-03-04T10:07:54;5.20;1.00
7048;DHT22;3565;53.254;10.352;2023-03-04T10:10:23;5.30;1.00
7048;DHT22;3565;53.254;10.352;2023-03-04T10:12:53;5.30;1.00
7048;DHT22;3565;53.254;10.352;2023-03-04T10:15:26;5.30;1.00
7048;DHT22;3565;53.254;10.352;2023-03-04T10:18:00;5.20;1.00
7048;DHT22;3565;53.254;10.352;2023-03-04T10:20:36;5.30;1.00
7048;DHT22;3565;53.254;10.352;2023-03-04T10:23:09;5.30;1.00
7048;DHT22;3565;53.254;10.352;2023-03-04T10:25:42;5.20;1.00
7048;DHT22;3565;53.254;10.352;2023-03-04T10:28:14;5.40;1.00
7048;DHT22;3565;53.254;10.352;2023-03-04T10:30:48;5.30;1.00
7048;DHT22;3565;53.254;10.352;2023-03-04T10:33:20;5.50;1.00
7048;DHT22;3565;53.254;10.352;2023-03-04T10:35:52;5.60;1.00
7048;DHT22;3565;53.254;10.352;2023-03-04T10:38:22;5.60;1.00
7048;DHT22;3565;53.254;10.352;2023-03-04T10:40:51;5.70;1.00
7048;DHT22;3565;53.254;10.352;2023-03-04T10:43:21;5.70;1.00
7048;DHT22;3565;53.254;10.352;2023-03-04T10:45:54;5.80;1.00
7048;DHT22;3565;53.254;10.352;2023-03-04T10:48:26;5.80;1.00
7048;DHT22;3565;53.254;10.352;2023-03-04T10:51:09;5.60;1.00
7048;DHT22;3565;53.254;10.352;2023-03-04T10:53:35;5.70;1.00
7048;DHT22;3565;53.254;10.352;2023-03-04T10:56:08;5.70;1.00
7048;DHT22;3565;53.254;10.352;2023-03-04T10:58:39;5.60;1.00
7048;DHT22;3565;53.254;10.352;2023-03-04T11:03:54;5.70;1.00
7048;DHT22;3565;53.254;10.352;2023-03-04T11:06:24;5.90;1.00
7048;DHT22;3565;53.254;10.352;2023-03-04T11:08:56;5.80;1.00
7048;DHT22;3565;53.254;10.352;2023-03-04T11:14:12;5.90;1.00
7048;DHT22;3565;53.254;10.352;2023-03-04T11:16:41;5.90;1.00
7048;DHT22;3565;53.254;10.352;2023-03-04T11:19:14;5.80;1.00
7048;DHT22;3565;53.254;10.352;2023-03-04T11:21:44;5.60;1.00
7048;DHT22;3565;53.254;10.352;2023-03-04T11:24:18;5.60;1.00
7048;DHT22;3565;53.254;10.352;2023-03-04T11:26:50;5.50;1.00
7048;DHT22;3565;53.254;10.352;2023-03-04T11:29:23;5.70;1.00
7048;DHT22;3565;53.254;10.352;2023-03-04T11:31:55;5.80;1.00
7048;DHT22;3565;53.254;10.352;2023-03-04T11:34:33;5.80;1.00
7048;DHT22;3565;53.254;10.352;2023-03-04T11:37:05;6.00;1.00
7048;DHT22;3565;53.254;10.352;2023-03-04T11:39:37;5.80;1.00
7048;DHT22;3565;53.254;10.352;2023-03-04T11:42:12;5.70;1.00
7048;DHT22;3565;53.254;10.352;2023-03-04T11:47:32;5.90;1.00
7048;DHT22;3565;53.254;10.352;2023-03-04T11:50:24;5.80;1.00
7048;DHT22;3565;53.254;10.352;2023-03-04T11:56:30;5.90;1.00
7048;DHT22;3565;53.254;10.352;2023-03-04T11:59:15;6.20;1.00
7048;DHT22;3565;53.254;10.352;2023-03-04T12:01:52;6.20;1.00
7048;DHT22;3565;53.254;10.352;2023-03-04T12:07:58;6.10;1.00
7048;DHT22;3565;53.254;10.352;2023-03-04T12:10:48;6.10;1.00
7048;DHT22;3565;53.254;10.352;2023-03-04T12:13:47;6.00;1.00
7048;DHT22;3565;53.254;10.352;2023-03-04T12:16:27;6.10;1.00
7048;DHT22;3565;53.254;10.352;2023-03-04T12:19:03;6.20;1.00
7048;DHT22;3565;53.254;10.352;2023-03-04T12:22:05;6.20;1.00
7048;DHT22;3565;53.254;10.352;2023-03-04T12:24:43;6.20;1.00
7048;DHT22;3565;53.254;10.352;2023-03-04T12:30:00;6.00;1.00
7048;DHT22;3565;53.254;10.352;2023-03-04T12:32:37;6.10;1.00
7048;DHT22;3565;53.254;10.352;2023-03-04T12:35:19;6.10;1.00
7048;DHT22;3565;53.254;10.352;2023-03-04T12:37:59;6.10;1.00
7048;DHT22;3565;53.254;10.352;2023-03-04T12:40:39;6.10;1.00
7048;DHT22;3565;53.254;10.352;2023-03-04T12:46:26;6.10;1.00
7048;DHT22;3565;53.254;10.352;2023-03-04T12:51:58;6.10;1.00
7048;DHT22;3565;53.254;10.352;2023-03-04T12:57:16;6.10;1.00
7048;DHT22;3565;53.254;10.352;2023-03-04T12:59:50;6.20;1.00
7048;DHT22;3565;53.254;10.352;2023-03-04T13:05:42;6.20;1.00
7048;DHT22;3565;53.254;10.352;2023-03-04T13:08:20;6.50;1.00
7048;DHT22;3565;53.254;10.352;2023-03-04T13:10:51;6.80;1.00
7048;DHT22;3565;53.254;10.352;2023-03-04T13:13:38;6.70;1.00
7048;DHT22;3565;53.254;10.352;2023-03-04T13:16:28;6.70;1.00
7048;DHT22;3565;53.254;10.352;2023-03-04T13:19:00;6.70;1.00
7048;DHT22;3565;53.254;10.352;2023-03-04T13:21:30;6.90;1.00
7048;DHT22;3565;53.254;10.352;2023-03-04T13:24:39;6.90;1.00
7048;DHT22;3565;53.254;10.352;2023-03-04T13:26:44;6.70;1.00
7048;DHT22;3565;53.254;10.352;2023-03-04T13:32:33;6.80;1.00
7048;DHT22;3565;53.254;10.352;2023-03-04T13:34:55;6.60;1.00
7048;DHT22;3565;53.254;10.352;2023-03-04T13:37:55;7.30;1.00
7048;DHT22;3565;53.254;10.352;2023-03-04T13:43:26;7.40;1.00
7048;DHT22;3565;53.254;10.352;2023-03-04T13:45:57;7.10;1.00
7048;DHT22;3565;53.254;10.352;2023-03-04T13:48:32;7.10;1.00
7048;DHT22;3565;53.254;10.352;2023-03-04T13:51:11;6.70;1.00
7048;DHT22;3565;53.254;10.352;2023-03-04T13:53:43;6.60;1.00
7048;DHT22;3565;53.254;10.352;2023-03-04T13:56:29;6.30;1.00
7048;DHT22;3565;53.254;10.352;2023-03-04T14:02:13;6.10;1.00
7048;DHT22;3565;53.254;10.352;2023-03-04T14:04:55;6.20;1.00
7048;DHT22;3565;53.254;10.352;2023-03-04T14:07:24;6.30;1.00
7048;DHT22;3565;53.254;10.352;2023-03-04T14:12:37;6.10;1.00
7048;DHT22;3565;53.254;10.352;2023-03-04T14:15:17;6.20;1.00
7048;DHT22;3565;53.254;10.352;2023-03-04T14:17:48;6.20;1.00
7048;DHT22;3565;53.254;10.352;2023-03-04T14:20:25;6.10;1.00
7048;DHT22;3565;53.254;10.352;2023-03-04T14:25:34;6.10;1.00
7048;DHT22;3565;53.254;10.352;2023-03-04T14:28:09;6.20;1.00
7048;DHT22;3565;53.254;10.352;2023-03-04T14:30:40;6.30;1.00
7048;DHT22;3565;53.254;10.352;2023-03-04T14:33:15;6.20;1.00
7048;DHT22;3565;53.254;10.352;2023-03-04T14:35:48;6.30;1.00
7048;DHT22;3565;53.254;10.352;2023-03-04T14:38:23;6.20;1.00
7048;DHT22;3565;53.254;10.352;2023-03-04T14:40:56;6.20;1.00
7048;DHT22;3565;53.254;10.352;2023-03-04T14:43:27;6.10;1.00
7048;DHT22;3565;53.254;10.352;2023-03-04T14:45:58;6.20;1.00
7048;DHT22;3565;53.254;10.352;2023-03-04T14:48:31;6.20;1.00
7048;DHT22;3565;53.254;10.352;2023-03-04T14:53:51;6.10;1.00
7048;DHT22;3565;53.254;10.352;2023-03-04T14:56:13;5.90;1.00
7048;DHT22;3565;53.254;10.352;2023-03-04T14:58:54;5.90;1.00
7048;DHT22;3565;53.254;10.352;2023-03-04T15:01:29;5.90;1.00
7048;DHT22;3565;53.254;10.352;2023-03-04T15:04:01;5.90;1.00
7048;DHT22;3565;53.254;10.352;2023-03-04T15:06:39;5.80;1.00
7048;DHT22;3565;53.254;10.352;2023-03-04T15:09:18;5.80;1.00
7048;DHT22;3565;53.254;10.352;2023-03-04T15:11:50;5.70;1.00
7048;DHT22;3565;53.254;10.352;2023-03-04T15:14:42;5.90;1.00
7048;DHT22;3565;53.254;10.352;2023-03-04T15:17:29;5.90;1.00
7048;DHT22;3565;53.254;10.352;2023-03-04T15:20:00;5.80;1.00
7048;DHT22;3565;53.254;10.352;2023-03-04T15:22:30;5.60;1.00
7048;DHT22;3565;53.254;10.352;2023-03-04T15:24:59;5.60;1.00
7048;DHT22;3565;53.254;10.352;2023-03-04T15:27:29;5.50;1.00
7048;DHT22;3565;53.254;10.352;2023-03-04T15:29:59;5.50;1.00
7048;DHT22;3565;53.254;10.352;2023-03-04T15:32:29;5.50;1.00
7048;DHT22;3565;53.254;10.352;2023-03-04T15:34:59;5.50;1.00
7048;DHT22;3565;53.254;10.352;2023-03-04T15:37:29;5.50;1.00
7048;DHT22;3565;53.254;10.352;2023-03-04T15:39:58;5.50;1.00
7048;DHT22;3565;53.254;10.352;2023-03-04T15:42:28;5.50;1.00
7048;DHT22;3565;53.254;10.352;2023-03-04T15:44:57;5.30;1.00
7048;DHT22;3565;53.254;10.352;2023-03-04T15:50:10;5.20;1.00
7048;DHT22;3565;53.254;10.352;2023-03-04T15:52:41;5.20;1.00
7048;DHT22;3565;53.254;10.352;2023-03-04T15:55:14;5.20;1.00
7048;DHT22;3565;53.254;10.352;2023-03-04T15:57:47;5.20;1.00
7048;DHT22;3565;53.254;10.352;2023-03-04T16:00:18;5.20;1.00
7048;DHT22;3565;53.254;10.352;2023-03-04T16:02:47;5.20;1.00
7048;DHT22;3565;53.254;10.352;2023-03-04T16:05:17;5.10;1.00
7048;DHT22;3565;53.254;10.352;2023-03-04T16:07:49;5.10;1.00
7048;DHT22;3565;53.254;10.352;2023-03-04T16:10:21;5.00;1.00
7048;DHT22;3565;53.254;10.352;2023-03-04T16:12:52;5.00;1.00
7048;DHT22;3565;53.254;10.352;2023-03-04T16:15:24;4.90;1.00
7048;DHT22;3565;53.254;10.352;2023-03-04T16:17:56;4.90;1.00
7048;DHT22;3565;53.254;10.352;2023-03-04T16:20:30;4.90;1.00
7048;DHT22;3565;53.254;10.352;2023-03-04T16:23:01;4.80;1.00
7048;DHT22;3565;53.254;10.352;2023-03-04T16:25:31;4.80;1.00
7048;DHT22;3565;53.254;10.352;2023-03-04T16:28:00;4.90;1.00
7048;DHT22;3565;53.254;10.352;2023-03-04T16:30:31;4.80;1.00
7048;DHT22;3565;53.254;10.352;2023-03-04T16:33:00;4.80;1.00
7048;DHT22;3565;53.254;10.352;2023-03-04T16:35:32;4.70;1.00
7048;DHT22;3565;53.254;10.352;2023-03-04T16:38:03;4.60;1.00
7048;DHT22;3565;53.254;10.352;2023-03-04T16:40:34;4.60;1.00
7048;DHT22;3565;53.254;10.352;2023-03-04T16:45:42;4.60;1.00
7048;DHT22;3565;53.254;10.352;2023-03-04T16:48:12;4.60;1.00
7048;DHT22;3565;53.254;10.352;2023-03-04T16:50:42;4.50;1.00
7048;DHT22;3565;53.254;10.352;2023-03-04T16:53:22;4.50;1.00
7048;DHT22;3565;53.254;10.352;2023-03-04T16:55:52;4.50;1.00
7048;DHT22;3565;53.254;10.352;2023-03-04T16:58:22;4.40;1.00
7048;DHT22;3565;53.254;10.352;2023-03-04T17:00:51;4.40;1.00
7048;DHT22;3565;53.254;10.352;2023-03-04T17:03:21;4.40;1.00
7048;DHT22;3565;53.254;10.352;2023-03-04T17:05:50;4.40;1.00
7048;DHT22;3565;53.254;10.352;2023-03-04T17:08:19;4.40;1.00
7048;DHT22;3565;53.254;10.352;2023-03-04T17:10:50;4.40;1.00
7048;DHT22;3565;53.254;10.352;2023-03-04T17:16:00;4.30;1.00
7048;DHT22;3565;53.254;10.352;2023-03-04T17:18:31;4.30;1.00
7048;DHT22;3565;53.254;10.352;2023-03-04T17:23:44;4.20;1.00
7048;DHT22;3565;53.254;10.352;2023-03-04T17:26:14;4.20;1.00
7048;DHT22;3565;53.254;10.352;2023-03-04T17:28:46;4.20;1.00
7048;DHT22;3565;53.254;10.352;2023-03-04T17:33:58;4.10;1.00
7048;DHT22;3565;53.254;10.352;2023-03-04T17:36:28;4.20;1.00
7048;DHT22;3565;53.254;10.352;2023-03-04T17:38:58;4.20;1.00
7048;DHT22;3565;53.254;10.352;2023-03-04T17:41:28;4.10;1.00
7048;DHT22;3565;53.254;10.352;2023-03-04T17:43:57;4.10;1.00
7048;DHT22;3565;53.254;10.352;2023-03-04T17:46:28;4.10;1.00
7048;DHT22;3565;53.254;10.352;2023-03-04T17:48:58;4.20;1.00
7048;DHT22;3565;53.254;10.352;2023-03-04T17:51:32;4.10;1.00
7048;DHT22;3565;53.254;10.352;2023-03-04T17:56:43;4.00;1.00
7048;DHT22;3565;53.254;10.352;2023-03-04T17:59:14;4.00;1.00
7048;DHT22;3565;53.254;10.352;2023-03-04T18:01:45;4.10;1.00
7048;DHT22;3565;53.254;10.352;2023-03-04T18:04:14;4.00;1.00
7048;DHT22;3565;53.254;10.352;2023-03-04T18:06:45;4.00;1.00
7048;DHT22;3565;53.254;10.352;2023-03-04T18:09:15;4.10;1.00